sensor_id;sensor_type;location;lat;lon;timestamp;temperature;humidity
20400;DHT22;10359;53.596;22.520;2023-12-14T00:00:19;3.10;13.00
20400;DHT22;10359;53.596;22.520;2023-12-14T00:07:11;3.00;12.90
20400;DHT22;10359;53.596;22.520;2023-12-14T00:13:40;3.10;13.00
20400;DHT22;10359;53.596;22.520;2023-12-14T00:24:13;3.10;13.00
20400;DHT22;10359;53.596;22.520;2023-12-14T00:31:08;3.10;12.90
20400;DHT22;10359;53.596;22.520;2023-12-14T00:37:59;3.00;13.10
20400;DHT22;10359;53.596;22.520;2023-12-14T00:44:51;3.00;73.10
20400;DHT22;10359;53.596;22.520;2023-12-14T00:51:42;3.10;13.20
20400;DHT22;10359;53.596;22.520;2023-12-14T00:58:33;3.10;12.90
20400;DHT22;10359;53.596;22.520;2023-12-14T01:05:26;2.80;12.70
20400;DHT22;10359;53.596;22.520;2023-12-14T01:12:17;3.10;12.90
20400;DHT22;10359;53.596;22.520;2023-12-14T01:18:50;3.10;12.90
20400;DHT22;10359;53.596;22.520;2023-12-14T01:25:42;3.30;1.00
20400;DHT22;10359;53.596;22.520;2023-12-14T01:32:33;3.20;13.20
20400;DHT22;10359;53.596;22.520;2023-12-14T01:39:26;3.10;29.20
20400;DHT22;10359;53.596;22.520;2023-12-14T01:46:18;3.00;12.90
20400;DHT22;10359;53.596;22.520;2023-12-14T01:53:10;3.00;13.10
20400;DHT22;10359;53.596;22.520;2023-12-14T02:00:00;3.00;12.90
20400;DHT22;10359;53.596;22.520;2023-12-14T02:06:53;2.90;12.90
20400;DHT22;10359;53.596;22.520;2023-12-14T02:13:54;2.90;12.90
20400;DHT22;10359;53.596;22.520;2023-12-14T02:20:51;3.00;12.90
20400;DHT22;10359;53.596;22.520;2023-12-14T02:27:40;3.10;13.20
20400;DHT22;10359;53.596;22.520;2023-12-14T02:34:20;3.30;13.00
20400;DHT22;10359;53.596;22.520;2023-12-14T02:37:16;3.10;1.00
20400;DHT22;10359;53.596;22.520;2023-12-14T02:40:11;2.60;11.60
20400;DHT22;10359;53.596;22.520;2023-12-14T02:47:05;3.00;12.90
20400;DHT22;10359;53.596;22.520;2023-12-14T02:53:52;3.00;12.90
20400;DHT22;10359;53.596;22.520;2023-12-14T03:00:42;3.00;23.10
20400;DHT22;10359;53.596;22.520;2023-12-14T03:07:24;3.00;12.90
20400;DHT22;10359;53.596;22.520;2023-12-14T03:14:05;2.90;13.10
20400;DHT22;10359;53.596;22.520;2023-12-14T03:21:02;2.70;12.70
20400;DHT22;10359;53.596;22.520;2023-12-14T03:27:50;3.00;12.90
20400;DHT22;10359;53.596;22.520;2023-12-14T03:34:47;2.90;13.10
20400;DHT22;10359;53.596;22.520;2023-12-14T03:37:51;2.80;12.80
20400;DHT22;10359;53.596;22.520;2023-12-14T03:44:26;2.90;13.10
20400;DHT22;10359;53.596;22.520;2023-12-14T03:51:23;2.90;13.20
20400;DHT22;10359;53.596;22.520;2023-12-14T03:58:16;2.70;1.00
20400;DHT22;10359;53.596;22.520;2023-12-14T04:04:57;3.00;1.00
20400;DHT22;10359;53.596;22.520;2023-12-14T04:11:55;2.60;1.00
20400;DHT22;10359;53.596;22.520;2023-12-14T04:18:43;2.90;1.00
20400;DHT22;10359;53.596;22.520;2023-12-14T04:25:41;2.90;1.00
20400;DHT22;10359;53.596;22.520;2023-12-14T04:32:28;3.10;1.00
20400;DHT22;10359;53.596;22.520;2023-12-14T04:39:43;2.90;1.00
20400;DHT22;10359;53.596;22.520;2023-12-14T04:42:34;2.80;1.00
20400;DHT22;10359;53.596;22.520;2023-12-14T04:49:21;2.60;1.00
20400;DHT22;10359;53.596;22.520;2023-12-14T04:52:17;3.10;1.00
20400;DHT22;10359;53.596;22.520;2023-12-14T04:55:07;2.90;1.00
20400;DHT22;10359;53.596;22.520;2023-12-14T04:57:58;2.90;1.00
20400;DHT22;10359;53.596;22.520;2023-12-14T05:00:48;2.90;1.00
20400;DHT22;10359;53.596;22.520;2023-12-14T05:03:38;2.90;1.00
20400;DHT22;10359;53.596;22.520;2023-12-14T05:06:29;2.90;1.00
20400;DHT22;10359;53.596;22.520;2023-12-14T05:09:21;3.10;1.00
20400;DHT22;10359;53.596;22.520;2023-12-14T05:12:11;2.90;1.00
20400;DHT22;10359;53.596;22.520;2023-12-14T05:15:02;2.80;1.00
20400;DHT22;10359;53.596;22.520;2023-12-14T05:17:53;3.00;1.00
20400;DHT22;10359;53.596;22.520;2023-12-14T05:20:43;3.00;1.00
20400;DHT22;10359;53.596;22.520;2023-12-14T05:23:33;3.00;1.00
20400;DHT22;10359;53.596;22.520;2023-12-14T05:26:23;2.80;1.00
20400;DHT22;10359;53.596;22.520;2023-12-14T05:29:12;2.60;1.00
20400;DHT22;10359;53.596;22.520;2023-12-14T05:32:04;2.80;1.00
20400;DHT22;10359;53.596;22.520;2023-12-14T05:34:55;2.90;1.00
20400;DHT22;10359;53.596;22.520;2023-12-14T05:37:45;2.80;1.00
20400;DHT22;10359;53.596;22.520;2023-12-14T05:40:35;3.20;1.00
20400;DHT22;10359;53.596;22.520;2023-12-14T05:43:26;2.90;1.00
20400;DHT22;10359;53.596;22.520;2023-12-14T05:46:22;2.90;1.00
20400;DHT22;10359;53.596;22.520;2023-12-14T05:49:14;3.00;1.00
20400;DHT22;10359;53.596;22.520;2023-12-14T05:52:04;3.00;1.00
20400;DHT22;10359;53.596;22.520;2023-12-14T05:54:53;3.00;1.00
20400;DHT22;10359;53.596;22.520;2023-12-14T05:57:43;2.70;1.00
20400;DHT22;10359;53.596;22.520;2023-12-14T06:00:33;2.70;1.00
20400;DHT22;10359;53.596;22.520;2023-12-14T06:03:23;3.00;1.00
20400;DHT22;10359;53.596;22.520;2023-12-14T06:06:15;2.90;1.00
20400;DHT22;10359;53.596;22.520;2023-12-14T06:09:04;3.00;1.00
20400;DHT22;10359;53.596;22.520;2023-12-14T06:11:55;2.50;1.00
20400;DHT22;10359;53.596;22.520;2023-12-14T06:14:44;3.20;1.00
20400;DHT22;10359;53.596;22.520;2023-12-14T06:17:34;3.10;1.00
20400;DHT22;10359;53.596;22.520;2023-12-14T06:20:25;3.00;1.00
20400;DHT22;10359;53.596;22.520;2023-12-14T06:23:17;3.00;1.00
20400;DHT22;10359;53.596;22.520;2023-12-14T06:26:08;2.90;1.00
20400;DHT22;10359;53.596;22.520;2023-12-14T06:28:57;2.80;1.00
20400;DHT22;10359;53.596;22.520;2023-12-14T06:31:47;3.00;1.00
20400;DHT22;10359;53.596;22.520;2023-12-14T06:34:37;2.80;1.00
20400;DHT22;10359;53.596;22.520;2023-12-14T06:37:27;3.10;1.00
20400;DHT22;10359;53.596;22.520;2023-12-14T06:40:18;3.10;1.00
20400;DHT22;10359;53.596;22.520;2023-12-14T06:43:08;3.00;1.00
20400;DHT22;10359;53.596;22.520;2023-12-14T06:45:57;3.00;1.00
20400;DHT22;10359;53.596;22.520;2023-12-14T06:48:48;3.10;1.00
20400;DHT22;10359;53.596;22.520;2023-12-14T06:51:39;3.00;1.00
20400;DHT22;10359;53.596;22.520;2023-12-14T06:54:29;3.00;1.00
20400;DHT22;10359;53.596;22.520;2023-12-14T06:57:20;2.70;1.00
20400;DHT22;10359;53.596;22.520;2023-12-14T07:00:15;3.10;1.00
20400;DHT22;10359;53.596;22.520;2023-12-14T07:03:05;2.90;1.00
20400;DHT22;10359;53.596;22.520;2023-12-14T07:05:55;2.90;1.00
20400;DHT22;10359;53.596;22.520;2023-12-14T07:08:45;2.90;1.00
20400;DHT22;10359;53.596;22.520;2023-12-14T07:11:41;3.00;1.00
20400;DHT22;10359;53.596;22.520;2023-12-14T07:14:41;2.90;1.00
20400;DHT22;10359;53.596;22.520;2023-12-14T07:17:31;3.10;1.00
20400;DHT22;10359;53.596;22.520;2023-12-14T07:20:22;3.10;1.00
20400;DHT22;10359;53.596;22.520;2023-12-14T07:23:13;3.20;1.00
20400;DHT22;10359;53.596;22.520;2023-12-14T07:26:02;3.20;1.00
20400;DHT22;10359;53.596;22.520;2023-12-14T07:28:55;3.10;1.00
20400;DHT22;10359;53.596;22.520;2023-12-14T07:31:46;3.30;1.00
20400;DHT22;10359;53.596;22.520;2023-12-14T07:34:36;3.10;1.00
20400;DHT22;10359;53.596;22.520;2023-12-14T07:37:26;3.20;1.00
20400;DHT22;10359;53.596;22.520;2023-12-14T07:40:16;3.20;1.00
20400;DHT22;10359;53.596;22.520;2023-12-14T07:43:06;3.20;1.00
20400;DHT22;10359;53.596;22.520;2023-12-14T07:45:57;2.80;1.00
20400;DHT22;10359;53.596;22.520;2023-12-14T07:48:48;2.90;1.00
20400;DHT22;10359;53.596;22.520;2023-12-14T07:51:40;3.20;1.00
20400;DHT22;10359;53.596;22.520;2023-12-14T07:54:29;3.20;1.00
20400;DHT22;10359;53.596;22.520;2023-12-14T07:57:19;3.20;1.00
20400;DHT22;10359;53.596;22.520;2023-12-14T08:00:10;3.10;1.00
20400;DHT22;10359;53.596;22.520;2023-12-14T08:03:00;3.20;1.00
20400;DHT22;10359;53.596;22.520;2023-12-14T08:05:52;3.40;1.00
20400;DHT22;10359;53.596;22.520;2023-12-14T08:08:42;3.00;1.00
20400;DHT22;10359;53.596;22.520;2023-12-14T08:11:32;3.10;1.00
20400;DHT22;10359;53.596;22.520;2023-12-14T08:14:22;3.10;1.00
20400;DHT22;10359;53.596;22.520;2023-12-14T08:17:15;2.80;1.00
20400;DHT22;10359;53.596;22.520;2023-12-14T08:20:14;3.10;1.00
20400;DHT22;10359;53.596;22.520;2023-12-14T08:23:05;3.10;1.00
20400;DHT22;10359;53.596;22.520;2023-12-14T08:25:55;3.30;1.00
20400;DHT22;10359;53.596;22.520;2023-12-14T08:28:45;3.20;1.00
20400;DHT22;10359;53.596;22.520;2023-12-14T08:31:36;3.10;1.00
20400;DHT22;10359;53.596;22.520;2023-12-14T08:34:26;3.30;1.00
20400;DHT22;10359;53.596;22.520;2023-12-14T08:37:16;3.30;1.00
20400;DHT22;10359;53.596;22.520;2023-12-14T08:40:10;3.00;1.00
20400;DHT22;10359;53.596;22.520;2023-12-14T08:42:59;3.30;1.00
20400;DHT22;10359;53.596;22.520;2023-12-14T08:45:51;3.20;1.00
20400;DHT22;10359;53.596;22.520;2023-12-14T08:48:40;3.30;1.00
20400;DHT22;10359;53.596;22.520;2023-12-14T08:51:30;3.30;1.00
20400;DHT22;10359;53.596;22.520;2023-12-14T08:54:20;3.40;1.00
20400;DHT22;10359;53.596;22.520;2023-12-14T08:57:11;3.30;1.00
20400;DHT22;10359;53.596;22.520;2023-12-14T09:00:01;3.30;1.00
20400;DHT22;10359;53.596;22.520;2023-12-14T09:02:53;3.30;1.00
20400;DHT22;10359;53.596;22.520;2023-12-14T09:05:43;3.30;1.00
20400;DHT22;10359;53.596;22.520;2023-12-14T09:08:33;3.30;1.00
20400;DHT22;10359;53.596;22.520;2023-12-14T09:11:22;3.30;1.00
20400;DHT22;10359;53.596;22.520;2023-12-14T09:14:14;3.40;1.00
20400;DHT22;10359;53.596;22.520;2023-12-14T09:17:04;3.30;1.00
20400;DHT22;10359;53.596;22.520;2023-12-14T09:19:54;2.80;1.00
20400;DHT22;10359;53.596;22.520;2023-12-14T09:22:43;3.30;1.00
20400;DHT22;10359;53.596;22.520;2023-12-14T09:25:34;3.30;1.00
20400;DHT22;10359;53.596;22.520;2023-12-14T09:28:24;3.30;1.00
20400;DHT22;10359;53.596;22.520;2023-12-14T09:31:16;3.30;1.00
20400;DHT22;10359;53.596;22.520;2023-12-14T09:34:06;3.30;1.00
20400;DHT22;10359;53.596;22.520;2023-12-14T09:36:56;3.30;1.00
20400;DHT22;10359;53.596;22.520;2023-12-14T09:39:45;3.30;1.00
20400;DHT22;10359;53.596;22.520;2023-12-14T09:42:37;3.50;1.00
20400;DHT22;10359;53.596;22.520;2023-12-14T09:45:29;3.40;1.00
20400;DHT22;10359;53.596;22.520;2023-12-14T09:48:41;3.50;1.00
20400;DHT22;10359;53.596;22.520;2023-12-14T09:51:31;3.50;1.00
20400;DHT22;10359;53.596;22.520;2023-12-14T09:54:21;3.60;1.00
20400;DHT22;10359;53.596;22.520;2023-12-14T09:57:11;3.60;1.00
20400;DHT22;10359;53.596;22.520;2023-12-14T10:00:03;3.60;1.00
20400;DHT22;10359;53.596;22.520;2023-12-14T10:02:58;3.50;1.00
20400;DHT22;10359;53.596;22.520;2023-12-14T10:06:07;3.50;1.00
20400;DHT22;10359;53.596;22.520;2023-12-14T10:08:58;3.40;1.00
20400;DHT22;10359;53.596;22.520;2023-12-14T10:11:47;3.40;1.00
20400;DHT22;10359;53.596;22.520;2023-12-14T10:14:37;3.40;1.00
20400;DHT22;10359;53.596;22.520;2023-12-14T10:17:27;3.40;1.00
20400;DHT22;10359;53.596;22.520;2023-12-14T10:20:21;3.50;1.00
20400;DHT22;10359;53.596;22.520;2023-12-14T10:23:13;3.50;1.00
20400;DHT22;10359;53.596;22.520;2023-12-14T10:26:05;3.50;1.00
20400;DHT22;10359;53.596;22.520;2023-12-14T10:28:55;3.50;1.00
20400;DHT22;10359;53.596;22.520;2023-12-14T10:31:45;3.10;1.00
20400;DHT22;10359;53.596;22.520;2023-12-14T10:34:35;3.50;1.00
20400;DHT22;10359;53.596;22.520;2023-12-14T10:37:26;3.40;1.00
20400;DHT22;10359;53.596;22.520;2023-12-14T10:40:17;3.40;1.00
20400;DHT22;10359;53.596;22.520;2023-12-14T10:43:07;3.40;1.00
20400;DHT22;10359;53.596;22.520;2023-12-14T10:46:02;3.20;1.00
20400;DHT22;10359;53.596;22.520;2023-12-14T10:48:54;3.40;1.00
20400;DHT22;10359;53.596;22.520;2023-12-14T10:51:44;3.50;1.00
20400;DHT22;10359;53.596;22.520;2023-12-14T10:54:37;3.50;1.00
20400;DHT22;10359;53.596;22.520;2023-12-14T10:57:28;3.40;1.00
20400;DHT22;10359;53.596;22.520;2023-12-14T11:00:18;3.30;1.00
20400;DHT22;10359;53.596;22.520;2023-12-14T11:03:13;3.30;1.00
20400;DHT22;10359;53.596;22.520;2023-12-14T11:06:03;3.20;1.00
20400;DHT22;10359;53.596;22.520;2023-12-14T11:09:06;3.30;1.00
20400;DHT22;10359;53.596;22.520;2023-12-14T11:11:58;3.30;1.00
20400;DHT22;10359;53.596;22.520;2023-12-14T11:14:49;3.30;1.00
20400;DHT22;10359;53.596;22.520;2023-12-14T11:17:39;3.30;1.00
20400;DHT22;10359;53.596;22.520;2023-12-14T11:20:29;3.30;1.00
20400;DHT22;10359;53.596;22.520;2023-12-14T11:23:31;3.10;1.00
20400;DHT22;10359;53.596;22.520;2023-12-14T11:26:22;3.60;1.00
20400;DHT22;10359;53.596;22.520;2023-12-14T11:29:17;3.40;1.00
20400;DHT22;10359;53.596;22.520;2023-12-14T11:32:09;3.30;1.00
20400;DHT22;10359;53.596;22.520;2023-12-14T11:35:01;3.10;1.00
20400;DHT22;10359;53.596;22.520;2023-12-14T11:37:50;3.30;1.00
20400;DHT22;10359;53.596;22.520;2023-12-14T11:40:41;3.20;1.00
20400;DHT22;10359;53.596;22.520;2023-12-14T11:43:39;3.20;1.00
20400;DHT22;10359;53.596;22.520;2023-12-14T11:46:30;3.30;1.00
20400;DHT22;10359;53.596;22.520;2023-12-14T11:49:23;3.30;1.00
20400;DHT22;10359;53.596;22.520;2023-12-14T11:52:13;3.40;1.00
20400;DHT22;10359;53.596;22.520;2023-12-14T11:55:04;3.20;1.00
20400;DHT22;10359;53.596;22.520;2023-12-14T11:57:54;3.40;1.00
20400;DHT22;10359;53.596;22.520;2023-12-14T12:00:44;3.40;1.00
20400;DHT22;10359;53.596;22.520;2023-12-14T12:03:35;3.40;1.00
20400;DHT22;10359;53.596;22.520;2023-12-14T12:06:28;3.40;1.00
20400;DHT22;10359;53.596;22.520;2023-12-14T12:09:34;3.50;1.00
20400;DHT22;10359;53.596;22.520;2023-12-14T12:12:25;3.10;1.00
20400;DHT22;10359;53.596;22.520;2023-12-14T12:15:15;3.50;1.00
20400;DHT22;10359;53.596;22.520;2023-12-14T12:18:09;3.40;1.00
20400;DHT22;10359;53.596;22.520;2023-12-14T12:20:59;3.50;1.00
20400;DHT22;10359;53.596;22.520;2023-12-14T12:23:55;3.60;1.00
20400;DHT22;10359;53.596;22.520;2023-12-14T12:26:45;3.60;1.00
20400;DHT22;10359;53.596;22.520;2023-12-14T12:29:35;3.60;1.00
20400;DHT22;10359;53.596;22.520;2023-12-14T12:32:27;3.60;1.00
20400;DHT22;10359;53.596;22.520;2023-12-14T12:35:16;3.60;1.00
20400;DHT22;10359;53.596;22.520;2023-12-14T12:38:06;3.60;1.00
20400;DHT22;10359;53.596;22.520;2023-12-14T12:40:57;3.60;1.00
20400;DHT22;10359;53.596;22.520;2023-12-14T12:43:48;3.60;1.00
20400;DHT22;10359;53.596;22.520;2023-12-14T12:46:38;3.60;1.00
20400;DHT22;10359;53.596;22.520;2023-12-14T12:49:29;3.60;1.00
20400;DHT22;10359;53.596;22.520;2023-12-14T12:52:19;3.60;1.00
20400;DHT22;10359;53.596;22.520;2023-12-14T12:55:09;3.60;1.00
20400;DHT22;10359;53.596;22.520;2023-12-14T12:58:00;3.70;1.00
20400;DHT22;10359;53.596;22.520;2023-12-14T13:00:53;3.50;1.00
20400;DHT22;10359;53.596;22.520;2023-12-14T13:03:43;3.50;1.00
20400;DHT22;10359;53.596;22.520;2023-12-14T13:06:33;3.50;1.00
20400;DHT22;10359;53.596;22.520;2023-12-14T13:09:23;3.50;1.00
20400;DHT22;10359;53.596;22.520;2023-12-14T13:12:13;3.50;1.00
20400;DHT22;10359;53.596;22.520;2023-12-14T13:15:05;3.50;1.00
20400;DHT22;10359;53.596;22.520;2023-12-14T13:17:55;3.40;1.00
20400;DHT22;10359;53.596;22.520;2023-12-14T13:20:45;3.40;1.00
20400;DHT22;10359;53.596;22.520;2023-12-14T13:23:35;3.40;1.00
20400;DHT22;10359;53.596;22.520;2023-12-14T13:26:25;3.40;1.00
20400;DHT22;10359;53.596;22.520;2023-12-14T13:29:15;3.30;1.00
20400;DHT22;10359;53.596;22.520;2023-12-14T13:32:06;3.30;1.00
20400;DHT22;10359;53.596;22.520;2023-12-14T13:34:56;3.20;1.00
20400;DHT22;10359;53.596;22.520;2023-12-14T13:37:46;2.80;1.00
20400;DHT22;10359;53.596;22.520;2023-12-14T13:40:35;3.00;1.00
20400;DHT22;10359;53.596;22.520;2023-12-14T13:43:25;2.90;1.00
20400;DHT22;10359;53.596;22.520;2023-12-14T13:46:15;2.90;1.00
20400;DHT22;10359;53.596;22.520;2023-12-14T13:49:12;2.80;1.00
20400;DHT22;10359;53.596;22.520;2023-12-14T13:52:01;2.70;12.50
20400;DHT22;10359;53.596;22.520;2023-12-14T13:54:51;2.80;12.80
20400;DHT22;10359;53.596;22.520;2023-12-14T13:57:41;2.60;12.60
20400;DHT22;10359;53.596;22.520;2023-12-14T14:00:31;2.20;12.50
20400;DHT22;10359;53.596;22.520;2023-12-14T14:03:21;2.40;12.50
20400;DHT22;10359;53.596;22.520;2023-12-14T14:06:12;2.70;1.00
20400;DHT22;10359;53.596;22.520;2023-12-14T14:09:02;2.80;1.00
20400;DHT22;10359;53.596;22.520;2023-12-14T14:11:53;2.50;1.00
20400;DHT22;10359;53.596;22.520;2023-12-14T14:14:44;2.60;1.00
20400;DHT22;10359;53.596;22.520;2023-12-14T14:17:34;2.60;12.60
20400;DHT22;10359;53.596;22.520;2023-12-14T14:20:24;2.50;12.60
20400;DHT22;10359;53.596;22.520;2023-12-14T14:23:15;2.50;33.80
20400;DHT22;10359;53.596;22.520;2023-12-14T14:26:06;2.40;85.30
20400;DHT22;10359;53.596;22.520;2023-12-14T14:28:55;2.40;12.70
20400;DHT22;10359;53.596;22.520;2023-12-14T14:31:53;2.50;54.60
20400;DHT22;10359;53.596;22.520;2023-12-14T14:34:42;2.50;13.00
20400;DHT22;10359;53.596;22.520;2023-12-14T14:37:32;2.50;12.60
20400;DHT22;10359;53.596;22.520;2023-12-14T14:40:24;2.40;12.60
20400;DHT22;10359;53.596;22.520;2023-12-14T14:43:14;2.40;12.60
20400;DHT22;10359;53.596;22.520;2023-12-14T14:46:04;2.50;30.40
20400;DHT22;10359;53.596;22.520;2023-12-14T14:48:54;2.40;56.90
20400;DHT22;10359;53.596;22.520;2023-12-14T14:51:45;2.30;57.80
20400;DHT22;10359;53.596;22.520;2023-12-14T14:54:37;2.40;63.20
20400;DHT22;10359;53.596;22.520;2023-12-14T14:57:28;2.40;36.00
20400;DHT22;10359;53.596;22.520;2023-12-14T15:00:18;2.30;43.50
20400;DHT22;10359;53.596;22.520;2023-12-14T15:03:08;2.30;12.60
20400;DHT22;10359;53.596;22.520;2023-12-14T15:06:00;2.60;12.70
20400;DHT22;10359;53.596;22.520;2023-12-14T15:08:50;2.50;12.70
20400;DHT22;10359;53.596;22.520;2023-12-14T15:11:40;2.40;12.60
20400;DHT22;10359;53.596;22.520;2023-12-14T15:14:31;2.50;12.70
20400;DHT22;10359;53.596;22.520;2023-12-14T15:17:21;2.40;12.60
20400;DHT22;10359;53.596;22.520;2023-12-14T15:20:12;2.30;12.70
20400;DHT22;10359;53.596;22.520;2023-12-14T15:23:27;2.40;12.50
20400;DHT22;10359;53.596;22.520;2023-12-14T15:26:17;2.50;12.40
20400;DHT22;10359;53.596;22.520;2023-12-14T15:29:07;2.00;12.20
20400;DHT22;10359;53.596;22.520;2023-12-14T15:31:58;2.60;1.00
20400;DHT22;10359;53.596;22.520;2023-12-14T15:34:48;2.40;1.00
20400;DHT22;10359;53.596;22.520;2023-12-14T15:37:38;2.20;1.00
20400;DHT22;10359;53.596;22.520;2023-12-14T15:40:28;2.40;12.40
20400;DHT22;10359;53.596;22.520;2023-12-14T15:43:17;2.60;12.50
20400;DHT22;10359;53.596;22.520;2023-12-14T15:46:07;2.40;12.70
20400;DHT22;10359;53.596;22.520;2023-12-14T15:48:59;2.50;12.50
20400;DHT22;10359;53.596;22.520;2023-12-14T15:51:49;2.50;1.00
20400;DHT22;10359;53.596;22.520;2023-12-14T15:54:39;2.50;6.60
20400;DHT22;10359;53.596;22.520;2023-12-14T15:57:29;2.40;12.40
20400;DHT22;10359;53.596;22.520;2023-12-14T16:00:19;2.40;12.50
20400;DHT22;10359;53.596;22.520;2023-12-14T16:03:09;2.40;12.60
20400;DHT22;10359;53.596;22.520;2023-12-14T16:06:00;2.30;12.70
20400;DHT22;10359;53.596;22.520;2023-12-14T16:08:51;2.30;12.80
20400;DHT22;10359;53.596;22.520;2023-12-14T16:11:41;2.20;23.30
20400;DHT22;10359;53.596;22.520;2023-12-14T16:14:30;2.50;25.30
20400;DHT22;10359;53.596;22.520;2023-12-14T16:17:20;2.40;12.70
20400;DHT22;10359;53.596;22.520;2023-12-14T16:20:10;2.10;12.30
20400;DHT22;10359;53.596;22.520;2023-12-14T16:23:01;2.40;12.60
20400;DHT22;10359;53.596;22.520;2023-12-14T16:25:51;2.50;12.70
20400;DHT22;10359;53.596;22.520;2023-12-14T16:28:40;2.30;13.00
20400;DHT22;10359;53.596;22.520;2023-12-14T16:31:32;2.30;12.80
20400;DHT22;10359;53.596;22.520;2023-12-14T16:34:22;2.30;43.60
20400;DHT22;10359;53.596;22.520;2023-12-14T16:37:13;2.50;12.70
20400;DHT22;10359;53.596;22.520;2023-12-14T16:40:05;2.50;12.60
20400;DHT22;10359;53.596;22.520;2023-12-14T16:42:55;2.20;12.40
20400;DHT22;10359;53.596;22.520;2023-12-14T16:45:45;2.40;12.80
20400;DHT22;10359;53.596;22.520;2023-12-14T16:48:34;2.30;12.50
20400;DHT22;10359;53.596;22.520;2023-12-14T16:51:27;2.20;35.00
20400;DHT22;10359;53.596;22.520;2023-12-14T16:54:16;2.20;94.40
20400;DHT22;10359;53.596;22.520;2023-12-14T16:57:08;2.20;99.90
20400;DHT22;10359;53.596;22.520;2023-12-14T16:59:58;2.30;94.40
20400;DHT22;10359;53.596;22.520;2023-12-14T17:02:48;2.20;99.90
20400;DHT22;10359;53.596;22.520;2023-12-14T17:05:38;2.30;89.60
20400;DHT22;10359;53.596;22.520;2023-12-14T17:08:28;2.00;93.50
20400;DHT22;10359;53.596;22.520;2023-12-14T17:11:19;1.80;99.90
20400;DHT22;10359;53.596;22.520;2023-12-14T17:14:10;2.20;93.70
20400;DHT22;10359;53.596;22.520;2023-12-14T17:17:02;2.10;75.10
20400;DHT22;10359;53.596;22.520;2023-12-14T17:19:52;2.10;96.90
20400;DHT22;10359;53.596;22.520;2023-12-14T17:22:42;2.20;92.30
20400;DHT22;10359;53.596;22.520;2023-12-14T17:25:32;1.80;95.10
20400;DHT22;10359;53.596;22.520;2023-12-14T17:28:22;2.20;68.30
20400;DHT22;10359;53.596;22.520;2023-12-14T17:31:15;2.20;46.00
20400;DHT22;10359;53.596;22.520;2023-12-14T17:34:06;2.40;30.10
20400;DHT22;10359;53.596;22.520;2023-12-14T17:36:57;2.10;12.40
20400;DHT22;10359;53.596;22.520;2023-12-14T17:39:48;2.40;12.60
20400;DHT22;10359;53.596;22.520;2023-12-14T17:42:37;2.20;12.50
20400;DHT22;10359;53.596;22.520;2023-12-14T17:45:27;2.30;12.60
20400;DHT22;10359;53.596;22.520;2023-12-14T17:48:19;2.20;16.20
20400;DHT22;10359;53.596;22.520;2023-12-14T17:51:09;2.20;38.70
20400;DHT22;10359;53.596;22.520;2023-12-14T17:53:59;2.10;23.20
20400;DHT22;10359;53.596;22.520;2023-12-14T17:56:48;2.10;12.40
20400;DHT22;10359;53.596;22.520;2023-12-14T17:59:39;2.00;12.20
20400;DHT22;10359;53.596;22.520;2023-12-14T18:02:30;1.70;12.20
20400;DHT22;10359;53.596;22.520;2023-12-14T18:05:27;2.00;12.30
20400;DHT22;10359;53.596;22.520;2023-12-14T18:08:18;2.10;12.40
20400;DHT22;10359;53.596;22.520;2023-12-14T18:11:09;2.10;12.60
20400;DHT22;10359;53.596;22.520;2023-12-14T18:13:58;2.00;12.60
20400;DHT22;10359;53.596;22.520;2023-12-14T18:16:48;1.80;12.30
20400;DHT22;10359;53.596;22.520;2023-12-14T18:19:38;1.90;12.40
20400;DHT22;10359;53.596;22.520;2023-12-14T18:22:30;2.00;12.40
20400;DHT22;10359;53.596;22.520;2023-12-14T18:25:19;1.90;25.30
20400;DHT22;10359;53.596;22.520;2023-12-14T18:28:11;1.50;41.10
20400;DHT22;10359;53.596;22.520;2023-12-14T18:31:01;1.70;99.90
20400;DHT22;10359;53.596;22.520;2023-12-14T18:33:53;1.80;99.90
20400;DHT22;10359;53.596;22.520;2023-12-14T18:36:43;1.90;99.90
20400;DHT22;10359;53.596;22.520;2023-12-14T18:39:35;1.90;99.90
20400;DHT22;10359;53.596;22.520;2023-12-14T18:42:26;1.90;99.90
20400;DHT22;10359;53.596;22.520;2023-12-14T18:45:17;1.70;99.90
20400;DHT22;10359;53.596;22.520;2023-12-14T18:48:07;1.70;99.90
20400;DHT22;10359;53.596;22.520;2023-12-14T18:50:57;1.70;99.90
20400;DHT22;10359;53.596;22.520;2023-12-14T18:53:48;1.80;99.90
20400;DHT22;10359;53.596;22.520;2023-12-14T18:56:40;1.60;99.90
20400;DHT22;10359;53.596;22.520;2023-12-14T18:59:33;1.80;99.90
20400;DHT22;10359;53.596;22.520;2023-12-14T19:02:24;1.70;99.90
20400;DHT22;10359;53.596;22.520;2023-12-14T19:05:16;1.70;99.90
20400;DHT22;10359;53.596;22.520;2023-12-14T19:08:13;1.50;99.90
20400;DHT22;10359;53.596;22.520;2023-12-14T19:11:04;1.50;99.90
20400;DHT22;10359;53.596;22.520;2023-12-14T19:14:00;1.50;99.90
20400;DHT22;10359;53.596;22.520;2023-12-14T19:16:51;1.50;99.90
20400;DHT22;10359;53.596;22.520;2023-12-14T19:19:43;1.60;99.90
20400;DHT22;10359;53.596;22.520;2023-12-14T19:22:34;1.60;99.90
20400;DHT22;10359;53.596;22.520;2023-12-14T19:25:27;1.50;99.90
20400;DHT22;10359;53.596;22.520;2023-12-14T19:28:18;1.50;99.90
20400;DHT22;10359;53.596;22.520;2023-12-14T19:31:09;1.50;99.90
20400;DHT22;10359;53.596;22.520;2023-12-14T19:33:59;1.50;99.90
20400;DHT22;10359;53.596;22.520;2023-12-14T19:36:49;1.60;99.90
20400;DHT22;10359;53.596;22.520;2023-12-14T19:39:42;1.50;99.90
20400;DHT22;10359;53.596;22.520;2023-12-14T19:42:34;1.40;96.90
20400;DHT22;10359;53.596;22.520;2023-12-14T19:45:25;1.50;99.00
20400;DHT22;10359;53.596;22.520;2023-12-14T19:48:19;1.50;82.40
20400;DHT22;10359;53.596;22.520;2023-12-14T19:51:13;1.50;37.00
20400;DHT22;10359;53.596;22.520;2023-12-14T19:54:05;1.50;29.80
20400;DHT22;10359;53.596;22.520;2023-12-14T19:56:56;1.40;12.20
20400;DHT22;10359;53.596;22.520;2023-12-14T19:59:48;1.70;1.00
20400;DHT22;10359;53.596;22.520;2023-12-14T20:02:41;1.60;1.00
20400;DHT22;10359;53.596;22.520;2023-12-14T20:05:34;1.50;1.00
20400;DHT22;10359;53.596;22.520;2023-12-14T20:08:29;1.50;1.00
20400;DHT22;10359;53.596;22.520;2023-12-14T20:11:20;1.40;1.00
20400;DHT22;10359;53.596;22.520;2023-12-14T20:14:11;1.40;1.00
20400;DHT22;10359;53.596;22.520;2023-12-14T20:17:03;1.30;1.00
20400;DHT22;10359;53.596;22.520;2023-12-14T20:19:56;1.20;1.00
20400;DHT22;10359;53.596;22.520;2023-12-14T20:22:50;1.10;1.00
20400;DHT22;10359;53.596;22.520;2023-12-14T20:25:41;1.40;1.00
20400;DHT22;10359;53.596;22.520;2023-12-14T20:28:32;1.20;1.00
20400;DHT22;10359;53.596;22.520;2023-12-14T20:31:24;1.10;1.00
20400;DHT22;10359;53.596;22.520;2023-12-14T20:34:15;1.40;1.00
20400;DHT22;10359;53.596;22.520;2023-12-14T20:37:06;1.20;1.00
20400;DHT22;10359;53.596;22.520;2023-12-14T20:39:57;1.20;1.00
20400;DHT22;10359;53.596;22.520;2023-12-14T20:42:47;1.20;1.00
20400;DHT22;10359;53.596;22.520;2023-12-14T20:45:37;1.30;1.00
20400;DHT22;10359;53.596;22.520;2023-12-14T20:48:27;1.20;1.00
20400;DHT22;10359;53.596;22.520;2023-12-14T20:51:17;0.90;1.00
20400;DHT22;10359;53.596;22.520;2023-12-14T20:54:10;1.20;1.00